createdAt,value
2022-11-26T00:02:22.909Z,-0.48
2022-11-26T00:04:50.008Z,-0.53
2022-11-26T00:07:18.304Z,-0.54
2022-11-26T00:09:44.826Z,-0.52
2022-11-26T00:12:22.022Z,-0.52
2022-11-26T00:14:49.108Z,-0.58
2022-11-26T00:17:16.152Z,-0.58
2022-11-26T00:19:43.724Z,-0.61
2022-11-26T00:22:29.786Z,-0.64
2022-11-26T00:24:56.412Z,-0.64
2022-11-26T00:27:25.318Z,-0.61
2022-11-26T00:29:51.861Z,-0.58
2022-11-26T00:32:20.066Z,-0.67
2022-11-26T00:34:46.815Z,-0.70
2022-11-26T00:37:19.287Z,-0.86
2022-11-26T00:39:45.881Z,-0.89
2022-11-26T00:42:12.513Z,-0.87
2022-11-26T00:44:39.323Z,-0.87
2022-11-26T00:47:06.029Z,-0.91
2022-11-26T00:49:32.542Z,-0.91
2022-11-26T00:51:59.100Z,-1.01
2022-11-26T00:54:25.644Z,-1.05
2022-11-26T00:56:52.156Z,-1.05
2022-11-26T00:59:19.922Z,-1.03
2022-11-26T01:01:46.546Z,-1.05
2022-11-26T01:04:13.217Z,-1.01
2022-11-26T01:06:41.122Z,-0.99
2022-11-26T01:09:08.209Z,-0.91
2022-11-26T01:11:34.703Z,-0.85
2022-11-26T01:14:01.274Z,-0.81
2022-11-26T01:16:34.993Z,-0.86
2022-11-26T01:19:02.518Z,-0.89
2022-11-26T01:21:30.383Z,-0.88
2022-11-26T01:23:57.325Z,-0.86
2022-11-26T01:26:25.491Z,-0.82
2022-11-26T01:28:52.160Z,-0.84
2022-11-26T01:31:20.006Z,-0.85
2022-11-26T01:33:46.591Z,-0.89
2022-11-26T01:36:19.308Z,-0.90
2022-11-26T01:38:45.841Z,-0.93
2022-11-26T01:41:12.560Z,-0.95
2022-11-26T01:43:43.069Z,-0.94
2022-11-26T01:46:16.923Z,-0.93
2022-11-26T01:48:43.709Z,-0.93
2022-11-26T01:51:11.438Z,-0.97
2022-11-26T01:53:41.789Z,-0.96
2022-11-26T01:56:43.657Z,-0.89
2022-11-26T01:59:15.904Z,-0.96
2022-11-26T02:01:42.503Z,-1.02
2022-11-26T02:04:15.593Z,-0.97
2022-11-26T02:06:43.393Z,-0.92
2022-11-26T02:09:11.186Z,-0.86
2022-11-26T02:11:37.985Z,-0.88
2022-11-26T02:14:11.750Z,-0.82
2022-11-26T02:16:38.383Z,-0.71
2022-11-26T02:19:23.837Z,-0.70
2022-11-26T02:22:01.220Z,-0.63
2022-11-26T02:24:35.924Z,-0.60
2022-11-26T02:27:08.826Z,-0.56
2022-11-26T02:30:00.390Z,-0.52
2022-11-26T02:32:34.235Z,-0.41
2022-11-26T02:35:12.993Z,-0.54
2022-11-26T02:37:46.925Z,-0.71
2022-11-26T02:40:13.492Z,-0.68
2022-11-26T02:42:40.045Z,-0.67
2022-11-26T02:45:22.306Z,-0.63
2022-11-26T02:47:51.022Z,-0.57
2022-11-26T02:50:22.412Z,-0.56
2022-11-26T02:52:50.760Z,-0.52
2022-11-26T02:55:18.837Z,-0.51
2022-11-26T02:57:47.311Z,-0.57
2022-11-26T03:00:14.725Z,-0.54
2022-11-26T03:02:47.609Z,-0.52
2022-11-26T03:05:15.610Z,-0.52
2022-11-26T03:07:43.056Z,-0.54
2022-11-26T03:10:09.676Z,-0.54
2022-11-26T03:12:36.220Z,-0.56
2022-11-26T03:15:02.944Z,-0.56
2022-11-26T03:17:29.545Z,-0.48
2022-11-26T03:19:56.045Z,-0.48
2022-11-26T03:22:22.578Z,-0.47
2022-11-26T03:24:49.136Z,-0.43
2022-11-26T03:27:15.652Z,-0.37
2022-11-26T03:29:42.188Z,-0.37
2022-11-26T03:32:08.727Z,-0.26
2022-11-26T03:34:35.555Z,-0.29
2022-11-26T03:37:02.263Z,-0.28
2022-11-26T03:39:28.814Z,-0.24
2022-11-26T03:41:55.347Z,-0.29
2022-11-26T03:44:21.865Z,-0.30
2022-11-26T03:46:48.413Z,-0.25
2022-11-26T03:49:14.934Z,-0.32
2022-11-26T03:51:41.679Z,-0.36
2022-11-26T03:54:08.529Z,-0.33
2022-11-26T03:56:35.056Z,-0.30
2022-11-26T03:59:01.622Z,-0.18
2022-11-26T04:01:28.186Z,-0.17
2022-11-26T04:03:54.706Z,-0.15
2022-11-26T04:06:21.232Z,-0.12
2022-11-26T04:08:47.706Z,-0.10
2022-11-26T04:11:14.333Z,-0.08
2022-11-26T04:13:40.872Z,0.04
2022-11-26T04:16:07.731Z,0.01
2022-11-26T04:18:34.414Z,0.07
2022-11-26T04:21:01.119Z,0.16
2022-11-26T04:23:27.859Z,0.09
2022-11-26T04:25:54.357Z,0.12
2022-11-26T04:28:20.899Z,0.13
2022-11-26T04:30:47.445Z,0.03
2022-11-26T04:33:14.193Z,-0.01
2022-11-26T04:35:40.727Z,-0.03
2022-11-26T04:38:07.269Z,-0.01
2022-11-26T04:40:33.817Z,-0.02
2022-11-26T04:43:00.312Z,0.05
2022-11-26T04:45:27.431Z,0.01
2022-11-26T04:47:54.029Z,-0.01
2022-11-26T04:50:20.660Z,-0.04
2022-11-26T04:52:48.610Z,-0.05
2022-11-26T04:55:15.607Z,-0.01
2022-11-26T04:57:42.123Z,-0.02
2022-11-26T05:00:08.948Z,-0.01
2022-11-26T05:02:35.613Z,0.12
2022-11-26T05:05:02.131Z,0.08
2022-11-26T05:07:28.939Z,0.11
2022-11-26T05:09:55.464Z,0.06
2022-11-26T05:12:21.982Z,0.11
2022-11-26T05:14:48.492Z,0.07
2022-11-26T05:17:15.024Z,0.12
2022-11-26T05:19:41.532Z,0.11
2022-11-26T05:22:07.996Z,0.11
2022-11-26T05:24:34.559Z,0.08
2022-11-26T05:27:01.052Z,0.06
2022-11-26T05:29:27.644Z,0.05
2022-11-26T05:31:54.327Z,0.14
2022-11-26T05:34:21.198Z,0.14
2022-11-26T05:36:47.700Z,0.13
2022-11-26T05:39:14.191Z,0.20
2022-11-26T05:41:40.700Z,0.15
2022-11-26T05:44:07.223Z,0.17
2022-11-26T05:46:34.092Z,0.13
2022-11-26T05:49:00.815Z,0.17
2022-11-26T05:51:27.302Z,0.14
2022-11-26T05:53:53.812Z,0.11
2022-11-26T05:56:20.322Z,0.13
2022-11-26T05:58:46.821Z,0.08
2022-11-26T06:01:13.793Z,0.07
2022-11-26T06:03:40.386Z,0.06
2022-11-26T06:06:07.190Z,0.17
2022-11-26T06:08:33.981Z,0.18
2022-11-26T06:11:00.541Z,0.15
2022-11-26T06:13:27.200Z,0.30
2022-11-26T06:15:53.704Z,0.23
2022-11-26T06:18:20.182Z,0.17
2022-11-26T06:20:46.735Z,0.31
2022-11-26T06:23:13.220Z,0.23
2022-11-26T06:25:40.252Z,0.14
2022-11-26T06:28:06.762Z,0.14
2022-11-26T06:30:33.334Z,0.13
2022-11-26T06:32:59.840Z,0.11
2022-11-26T06:35:26.390Z,0.16
2022-11-26T06:37:52.858Z,0.15
2022-11-26T06:40:20.263Z,0.09
2022-11-26T06:42:50.911Z,0.08
2022-11-26T06:45:17.525Z,0.10
2022-11-26T06:47:45.442Z,0.12
2022-11-26T06:50:11.988Z,0.22
2022-11-26T06:52:38.520Z,0.24
2022-11-26T06:55:05.377Z,0.25
2022-11-26T06:57:31.928Z,0.29
2022-11-26T06:59:58.419Z,0.37
2022-11-26T07:02:24.939Z,0.37
2022-11-26T07:04:51.462Z,0.37
2022-11-26T07:07:17.988Z,0.38
2022-11-26T07:09:44.557Z,0.49
2022-11-26T07:12:11.406Z,0.59
2022-11-26T07:14:38.189Z,0.62
2022-11-26T07:17:04.985Z,0.61
2022-11-26T07:19:31.560Z,0.72
2022-11-26T07:21:58.160Z,0.82
2022-11-26T07:24:24.994Z,0.96
2022-11-26T07:26:51.527Z,0.99
2022-11-26T07:29:18.299Z,1.03
2022-11-26T07:31:44.872Z,1.26
2022-11-26T07:34:11.433Z,1.27
2022-11-26T07:36:42.963Z,1.21
2022-11-26T07:39:10.445Z,1.23
2022-11-26T07:41:36.980Z,1.27
2022-11-26T07:44:03.606Z,1.45
2022-11-26T07:46:30.190Z,1.44
2022-11-26T07:48:56.747Z,1.45
2022-11-26T07:51:24.718Z,1.46
2022-11-26T07:53:51.702Z,1.50
2022-11-26T07:56:18.618Z,1.83
2022-11-26T07:58:45.331Z,1.86
2022-11-26T08:01:13.796Z,1.81
2022-11-26T08:03:41.421Z,1.83
2022-11-26T08:06:08.976Z,1.94
2022-11-26T08:08:36.167Z,1.99
2022-11-26T08:11:03.603Z,2.08
2022-11-26T08:13:30.572Z,2.14
2022-11-26T08:15:57.122Z,2.26
2022-11-26T08:18:23.843Z,2.36
2022-11-26T08:20:59.434Z,2.27
2022-11-26T08:23:28.213Z,2.25
2022-11-26T08:26:20.391Z,2.48
2022-11-26T08:28:45.164Z,2.56
2022-11-26T08:31:12.340Z,2.53
2022-11-26T08:33:39.274Z,2.56
2022-11-26T08:36:08.107Z,2.60
2022-11-26T08:38:35.704Z,2.74
2022-11-26T08:41:03.657Z,2.83
2022-11-26T08:43:51.317Z,2.94
2022-11-26T08:46:16.827Z,3.02
2022-11-26T08:48:45.235Z,3.08
2022-11-26T08:51:12.369Z,3.22
2022-11-26T08:53:39.597Z,3.36
2022-11-26T08:56:07.405Z,3.39
2022-11-26T08:58:34.791Z,3.34
2022-11-26T09:01:07.431Z,3.30
2022-11-26T09:03:34.077Z,3.42
2022-11-26T09:06:01.425Z,3.39
2022-11-26T09:08:28.257Z,3.51
2022-11-26T09:10:55.619Z,3.49
2022-11-26T09:13:22.494Z,3.42
2022-11-26T09:15:49.621Z,3.45
2022-11-26T09:18:16.567Z,3.50
2022-11-26T09:20:43.110Z,3.47
2022-11-26T09:23:09.697Z,3.49
2022-11-26T09:25:38.240Z,3.61
2022-11-26T09:28:04.933Z,3.62
2022-11-26T09:30:32.033Z,3.64
2022-11-26T09:32:58.574Z,3.81
2022-11-26T09:35:25.407Z,3.79
2022-11-26T09:37:52.032Z,3.78
2022-11-26T09:40:19.029Z,4.01
2022-11-26T09:43:02.913Z,4.17
2022-11-26T09:45:38.465Z,4.13
2022-11-26T09:48:06.072Z,4.02
2022-11-26T09:50:33.379Z,4.03
2022-11-26T09:53:02.613Z,3.95
2022-11-26T09:55:36.453Z,3.87
2022-11-26T09:58:09.144Z,3.77
2022-11-26T10:00:40.636Z,3.79
2022-11-26T10:03:14.773Z,4.03
2022-11-26T10:05:43.126Z,4.10
2022-11-26T10:08:28.272Z,4.07
2022-11-26T10:11:01.173Z,4.10
2022-11-26T10:13:48.724Z,4.24
2022-11-26T10:16:18.404Z,4.41
2022-11-26T10:18:57.104Z,4.51
2022-11-26T10:21:57.778Z,4.75
2022-11-26T10:24:51.577Z,4.96
2022-11-26T10:27:19.523Z,5.03
2022-11-26T10:29:52.558Z,5.04
2022-11-26T10:32:26.852Z,5.08
2022-11-26T10:34:57.685Z,5.09
2022-11-26T10:37:27.516Z,5.12
2022-11-26T10:40:04.518Z,5.33
2022-11-26T10:42:40.895Z,5.32
2022-11-26T10:45:16.790Z,5.35
2022-11-26T10:47:43.288Z,5.47
2022-11-26T10:50:25.423Z,5.57
2022-11-26T10:53:04.314Z,5.61
2022-11-26T10:55:32.407Z,5.63
2022-11-26T10:58:04.100Z,5.64
2022-11-26T11:00:32.975Z,5.64
2022-11-26T11:03:00.324Z,5.65
2022-11-26T11:05:27.760Z,6.03
2022-11-26T11:07:55.020Z,6.24
2022-11-26T11:10:24.319Z,6.32
2022-11-26T11:12:51.163Z,6.33
2022-11-26T11:15:22.358Z,6.30
2022-11-26T11:18:03.112Z,6.29
2022-11-26T11:20:32.794Z,6.37
2022-11-26T11:23:05.111Z,6.41
2022-11-26T11:25:33.524Z,6.48
2022-11-26T11:28:02.260Z,6.54
2022-11-26T11:30:32.273Z,6.52
2022-11-26T11:33:09.430Z,6.50
2022-11-26T11:35:35.996Z,6.51
2022-11-26T11:38:02.545Z,6.50
2022-11-26T11:40:30.644Z,6.54
2022-11-26T11:43:05.135Z,6.60
2022-11-26T11:45:39.720Z,6.63
2022-11-26T11:48:21.792Z,6.64
2022-11-26T11:50:55.027Z,6.71
2022-11-26T11:53:21.546Z,6.79
2022-11-26T11:56:07.055Z,6.83
2022-11-26T11:58:45.612Z,6.88
2022-11-26T12:01:30.875Z,6.91
2022-11-26T12:04:11.126Z,7.13
2022-11-26T12:06:52.460Z,7.19
2022-11-26T12:09:33.970Z,7.17
2022-11-26T12:12:10.385Z,7.14
2022-11-26T12:14:43.227Z,7.10
2022-11-26T12:17:33.169Z,7.06
2022-11-26T12:20:21.134Z,7.01
2022-11-26T12:22:59.185Z,7.06
2022-11-26T12:25:35.151Z,7.13
2022-11-26T12:28:09.319Z,7.13
2022-11-26T12:30:40.056Z,7.09
2022-11-26T12:33:16.817Z,7.10
2022-11-26T12:35:45.763Z,7.08
2022-11-26T12:38:15.671Z,7.02
2022-11-26T12:40:46.167Z,7.07
2022-11-26T12:43:18.733Z,6.96
2022-11-26T12:45:48.340Z,7.00
2022-11-26T12:48:20.760Z,7.01
2022-11-26T12:50:55.027Z,7.00
2022-11-26T12:53:43.439Z,7.06
2022-11-26T12:56:17.704Z,7.01
2022-11-26T12:58:52.353Z,6.94
2022-11-26T13:01:19.059Z,6.89
2022-11-26T13:03:45.660Z,6.82
2022-11-26T13:06:12.221Z,6.79
2022-11-26T13:08:48.919Z,6.76
2022-11-26T13:11:15.435Z,6.76
2022-11-26T13:13:51.286Z,6.79
2022-11-26T13:16:24.044Z,6.78
2022-11-26T13:18:53.193Z,6.85
2022-11-26T13:21:38.172Z,6.85
2022-11-26T13:24:20.044Z,6.76
2022-11-26T13:27:05.468Z,6.67
2022-11-26T13:29:43.844Z,6.61
2022-11-26T13:32:33.573Z,6.58
2022-11-26T13:35:00.109Z,6.44
2022-11-26T13:37:26.591Z,6.33
2022-11-26T13:39:53.255Z,6.26
2022-11-26T13:42:52.258Z,6.17
2022-11-26T13:45:30.939Z,6.07
2022-11-26T13:48:01.877Z,5.97
2022-11-26T13:50:32.723Z,5.92
2022-11-26T13:53:05.061Z,5.84
2022-11-26T13:55:34.443Z,5.86
2022-11-26T13:58:02.831Z,5.81
2022-11-26T14:00:30.842Z,5.82
2022-11-26T14:02:57.990Z,5.76
2022-11-26T14:05:44.406Z,5.67
2022-11-26T14:08:29.592Z,5.67
2022-11-26T14:10:56.130Z,5.64
2022-11-26T14:13:22.652Z,5.56
2022-11-26T14:15:53.486Z,5.54
2022-11-26T14:18:40.034Z,5.60
2022-11-26T14:21:06.501Z,5.51
2022-11-26T14:23:44.980Z,5.54
2022-11-26T14:26:14.916Z,5.46
2022-11-26T14:28:41.535Z,5.49
2022-11-26T14:31:14.182Z,5.46
2022-11-26T14:33:45.209Z,5.48
2022-11-26T14:36:31.032Z,5.46
2022-11-26T14:39:10.200Z,5.54
2022-11-26T14:41:42.644Z,5.49
2022-11-26T14:44:12.098Z,5.50
2022-11-26T14:46:39.782Z,5.44
2022-11-26T14:49:15.214Z,5.42
2022-11-26T14:51:43.542Z,5.40
2022-11-26T14:54:15.938Z,5.44
2022-11-26T14:56:46.435Z,5.42
2022-11-26T14:59:15.694Z,5.35
2022-11-26T15:01:44.100Z,5.30
2022-11-26T15:04:22.293Z,5.31
2022-11-26T15:06:49.101Z,5.26
2022-11-26T15:09:26.154Z,5.21
2022-11-26T15:11:55.661Z,5.16
2022-11-26T15:14:31.809Z,5.16
2022-11-26T15:17:00.136Z,5.10
2022-11-26T15:19:27.587Z,4.98
2022-11-26T15:21:54.178Z,4.97
2022-11-26T15:24:20.737Z,4.88
2022-11-26T15:26:48.021Z,4.79
2022-11-26T15:29:31.599Z,4.67
2022-11-26T15:31:58.194Z,4.55
2022-11-26T15:34:25.623Z,4.47
2022-11-26T15:36:52.309Z,4.37
2022-11-26T15:39:31.587Z,4.26
2022-11-26T15:42:01.613Z,4.17
2022-11-26T15:44:29.738Z,4.07
2022-11-26T15:46:57.724Z,3.98
2022-11-26T15:49:28.281Z,3.92
2022-11-26T15:51:57.367Z,3.81
2022-11-26T15:54:30.833Z,3.69
2022-11-26T15:57:08.267Z,3.62
2022-11-26T15:59:42.980Z,3.52
2022-11-26T16:02:20.840Z,3.46
2022-11-26T16:04:51.590Z,3.37
2022-11-26T16:07:19.462Z,3.29
2022-11-26T16:09:47.050Z,3.24
2022-11-26T16:12:25.781Z,3.16
2022-11-26T16:14:52.409Z,3.11
2022-11-26T16:17:19.648Z,2.99
2022-11-26T16:19:51.500Z,2.95
2022-11-26T16:22:21.773Z,2.89
2022-11-26T16:25:04.069Z,2.84
2022-11-26T16:27:31.363Z,2.78
2022-11-26T16:29:58.403Z,2.74
2022-11-26T16:32:25.120Z,2.70
2022-11-26T16:34:51.600Z,2.66
2022-11-26T16:37:20.906Z,2.56
2022-11-26T16:39:48.151Z,2.48
2022-11-26T16:42:15.674Z,2.41
2022-11-26T16:44:42.405Z,2.32
2022-11-26T16:47:14.712Z,2.28
2022-11-26T16:49:41.273Z,2.25
2022-11-26T16:52:12.092Z,2.17
2022-11-26T16:54:38.863Z,2.12
2022-11-26T16:57:06.499Z,2.04
2022-11-26T16:59:33.033Z,2.01
2022-11-26T17:01:59.524Z,1.99
2022-11-26T17:04:26.082Z,1.97
2022-11-26T17:06:52.586Z,1.96
2022-11-26T17:09:19.375Z,1.94
2022-11-26T17:11:46.336Z,1.93
2022-11-26T17:14:13.051Z,1.87
2022-11-26T17:16:40.735Z,1.75
2022-11-26T17:19:16.503Z,1.70
2022-11-26T17:21:43.107Z,1.68
2022-11-26T17:24:09.647Z,1.73
2022-11-26T17:26:36.260Z,1.67
2022-11-26T17:29:02.763Z,1.62
2022-11-26T17:31:30.034Z,1.57
2022-11-26T17:33:56.787Z,1.52
2022-11-26T17:36:23.816Z,1.45
2022-11-26T17:38:50.429Z,1.43
2022-11-26T17:41:17.198Z,1.37
2022-11-26T17:43:43.695Z,1.32
2022-11-26T17:46:17.703Z,1.31
2022-11-26T17:48:44.630Z,1.31
2022-11-26T17:51:11.747Z,1.25
2022-11-26T17:53:38.275Z,1.20
2022-11-26T17:56:04.930Z,1.14
2022-11-26T17:58:31.912Z,1.11
2022-11-26T18:00:58.661Z,1.12
2022-11-26T18:03:25.216Z,1.08
2022-11-26T18:05:51.749Z,1.02
2022-11-26T18:08:19.200Z,1.03
2022-11-26T18:10:46.919Z,1.02
2022-11-26T18:13:13.462Z,1.01
2022-11-26T18:15:40.103Z,0.99
2022-11-26T18:18:07.569Z,0.95
2022-11-26T18:20:34.397Z,0.93
2022-11-26T18:23:01.348Z,0.87
2022-11-26T18:25:28.535Z,0.81
2022-11-26T18:27:55.048Z,0.76
2022-11-26T18:30:21.977Z,0.74
2022-11-26T18:32:48.557Z,0.72
2022-11-26T18:35:15.228Z,0.74
2022-11-26T18:37:41.867Z,0.73
2022-11-26T18:40:10.385Z,0.74
2022-11-26T18:42:38.119Z,0.70
2022-11-26T18:45:06.380Z,0.64
2022-11-26T18:47:33.318Z,0.59
2022-11-26T18:49:59.910Z,0.50
2022-11-26T18:52:26.425Z,0.50
2022-11-26T18:54:53.039Z,0.53
2022-11-26T18:57:19.699Z,0.48
2022-11-26T18:59:46.831Z,0.42
2022-11-26T19:02:13.936Z,0.37
2022-11-26T19:04:40.463Z,0.33
2022-11-26T19:07:07.038Z,0.30
2022-11-26T19:09:33.559Z,0.32
2022-11-26T19:12:00.116Z,0.27
2022-11-26T19:14:26.926Z,0.26
2022-11-26T19:16:53.868Z,0.22
2022-11-26T19:19:20.535Z,0.19
2022-11-26T19:21:47.091Z,0.16
2022-11-26T19:24:14.226Z,0.15
2022-11-26T19:26:42.174Z,0.15
2022-11-26T19:29:09.441Z,0.13
2022-11-26T19:31:36.475Z,0.15
2022-11-26T19:34:06.095Z,0.15
2022-11-26T19:36:33.336Z,0.16
2022-11-26T19:39:00.579Z,0.13
2022-11-26T19:41:27.744Z,0.11
2022-11-26T19:43:55.029Z,0.07
2022-11-26T19:46:22.813Z,0.07
2022-11-26T19:48:50.412Z,0.03
2022-11-26T19:51:17.854Z,0.01
2022-11-26T19:53:47.404Z,-0.04
2022-11-26T19:56:16.715Z,-0.07
2022-11-26T19:58:43.372Z,-0.09
2022-11-26T20:01:11.455Z,-0.09
2022-11-26T20:03:38.073Z,-0.13
2022-11-26T20:06:06.166Z,-0.12
2022-11-26T20:08:33.546Z,-0.11
2022-11-26T20:11:00.707Z,-0.12
2022-11-26T20:13:27.274Z,-0.11
2022-11-26T20:15:53.811Z,-0.14
2022-11-26T20:18:20.371Z,-0.19
2022-11-26T20:20:56.927Z,-0.22
2022-11-26T20:23:23.443Z,-0.28
2022-11-26T20:25:49.976Z,-0.27
2022-11-26T20:28:16.484Z,-0.31
2022-11-26T20:30:43.012Z,-0.38
2022-11-26T20:33:09.945Z,-0.43
2022-11-26T20:35:39.877Z,-0.44
2022-11-26T20:38:06.424Z,-0.47
2022-11-26T20:40:33.175Z,-0.47
2022-11-26T20:42:59.880Z,-0.42
2022-11-26T20:45:26.449Z,-0.47
2022-11-26T20:47:52.941Z,-0.54
2022-11-26T20:50:19.436Z,-0.64
2022-11-26T20:52:45.949Z,-0.66
2022-11-26T20:55:12.611Z,-0.68
2022-11-26T20:57:39.224Z,-0.68
2022-11-26T21:00:06.480Z,-0.71
2022-11-26T21:02:33.336Z,-0.74
2022-11-26T21:05:02.806Z,-0.73
2022-11-26T21:07:29.985Z,-0.74
2022-11-26T21:09:56.618Z,-0.79
2022-11-26T21:12:23.117Z,-0.82
2022-11-26T21:14:49.620Z,-0.80
2022-11-26T21:17:16.277Z,-0.82
2022-11-26T21:19:42.982Z,-0.83
2022-11-26T21:22:09.487Z,-0.80
2022-11-26T21:24:37.187Z,-0.82
2022-11-26T21:27:04.209Z,-0.87
2022-11-26T21:29:30.725Z,-0.89
2022-11-26T21:31:57.246Z,-0.87
2022-11-26T21:34:23.753Z,-0.92
2022-11-26T21:36:50.284Z,-0.92
2022-11-26T21:39:16.804Z,-0.94
2022-11-26T21:41:43.405Z,-0.96
2022-11-26T21:44:11.332Z,-0.94
2022-11-26T21:46:38.990Z,-0.92
2022-11-26T21:49:06.091Z,-0.92
2022-11-26T21:51:32.593Z,-0.92
2022-11-26T21:53:59.166Z,-0.92
2022-11-26T21:56:27.228Z,-0.95
2022-11-26T21:58:56.960Z,-0.95
2022-11-26T22:01:25.925Z,-0.96
2022-11-26T22:03:53.673Z,-0.95
2022-11-26T22:06:21.383Z,-0.94
2022-11-26T22:08:48.436Z,-0.95
2022-11-26T22:11:17.041Z,-0.88
2022-11-26T22:13:43.886Z,-0.91
2022-11-26T22:16:11.362Z,-0.94
2022-11-26T22:18:38.804Z,-0.95
2022-11-26T22:21:07.558Z,-0.98
2022-11-26T22:23:34.195Z,-0.99
2022-11-26T22:26:00.779Z,-1.00
2022-11-26T22:28:30.147Z,-1.02
2022-11-26T22:30:57.031Z,-1.00
2022-11-26T22:33:23.606Z,-1.02
2022-11-26T22:35:50.147Z,-0.99
2022-11-26T22:38:16.655Z,-1.01
2022-11-26T22:40:43.187Z,-0.99
2022-11-26T22:43:09.723Z,-0.98
2022-11-26T22:45:37.196Z,-1.02
2022-11-26T22:48:03.980Z,-1.06
2022-11-26T22:50:30.508Z,-1.09
2022-11-26T22:52:56.982Z,-1.13
2022-11-26T22:55:23.731Z,-1.15
2022-11-26T22:57:50.315Z,-1.17
2022-11-26T23:00:36.932Z,-1.14
2022-11-26T23:03:03.851Z,-1.15
2022-11-26T23:05:30.434Z,-1.19
2022-11-26T23:07:57.016Z,-1.21
2022-11-26T23:10:23.584Z,-1.24
2022-11-26T23:12:50.138Z,-1.23
2022-11-26T23:15:16.660Z,-1.27
2022-11-26T23:17:43.153Z,-1.26
2022-11-26T23:20:09.823Z,-1.29
2022-11-26T23:22:36.325Z,-1.31
2022-11-26T23:25:02.857Z,-1.33
2022-11-26T23:27:29.330Z,-1.32
2022-11-26T23:29:55.868Z,-1.27
2022-11-26T23:32:22.322Z,-1.28
2022-11-26T23:34:48.902Z,-1.25
2022-11-26T23:37:15.403Z,-1.23
2022-11-26T23:39:42.054Z,-1.19
2022-11-26T23:42:08.715Z,-1.22
2022-11-26T23:44:35.297Z,-1.20
2022-11-26T23:47:01.825Z,-1.15
2022-11-26T23:49:28.352Z,-1.19
2022-11-26T23:51:54.886Z,-1.19
2022-11-26T23:54:21.393Z,-1.18
2022-11-26T23:56:49.042Z,-1.17
2022-11-26T23:59:15.557Z,-1.13
